sensor_id;sensor_type;location;lat;lon;timestamp;P1;durP1;ratioP1;P2;durP2;ratioP2
3979;SDS011;2004;52.452;13.120;2022-10-16T00:00:24;6.80;;;2.03;;
3979;SDS011;2004;52.452;13.120;2022-10-16T00:08:15;1.77;;;1.67;;
3979;SDS011;2004;52.452;13.120;2022-10-16T00:16:06;1.67;;;1.57;;
3979;SDS011;2004;52.452;13.120;2022-10-16T00:23:58;3.10;;;1.90;;
3979;SDS011;2004;52.452;13.120;2022-10-16T00:31:50;1.57;;;1.47;;
3979;SDS011;2004;52.452;13.120;2022-10-16T00:39:41;1.90;;;1.70;;
3979;SDS011;2004;52.452;13.120;2022-10-16T00:55:24;1.40;;;1.40;;
3979;SDS011;2004;52.452;13.120;2022-10-16T01:03:23;1.40;;;1.30;;
3979;SDS011;2004;52.452;13.120;2022-10-16T01:11:22;2.60;;;1.40;;
3979;SDS011;2004;52.452;13.120;2022-10-16T01:19:36;1.37;;;1.33;;
3979;SDS011;2004;52.452;13.120;2022-10-16T01:27:54;1.10;;;1.10;;
3979;SDS011;2004;52.452;13.120;2022-10-16T01:35:47;1.40;;;1.30;;
3979;SDS011;2004;52.452;13.120;2022-10-16T01:43:48;1.67;;;1.30;;
3979;SDS011;2004;52.452;13.120;2022-10-16T01:51:43;2.53;;;1.37;;
3979;SDS011;2004;52.452;13.120;2022-10-16T01:59:38;1.50;;;1.13;;
3979;SDS011;2004;52.452;13.120;2022-10-16T02:07:33;1.40;;;1.30;;
3979;SDS011;2004;52.452;13.120;2022-10-16T02:15:24;2.03;;;1.90;;
3979;SDS011;2004;52.452;13.120;2022-10-16T02:23:23;1.90;;;1.43;;
3979;SDS011;2004;52.452;13.120;2022-10-16T02:31:22;1.60;;;1.50;;
3979;SDS011;2004;52.452;13.120;2022-10-16T02:39:17;1.17;;;1.17;;
3979;SDS011;2004;52.452;13.120;2022-10-16T02:47:09;3.80;;;2.00;;
3979;SDS011;2004;52.452;13.120;2022-10-16T02:55:00;2.13;;;1.60;;
3979;SDS011;2004;52.452;13.120;2022-10-16T03:02:50;2.00;;;1.60;;
3979;SDS011;2004;52.452;13.120;2022-10-16T03:10:41;6.80;;;1.50;;
3979;SDS011;2004;52.452;13.120;2022-10-16T03:18:31;2.73;;;1.40;;
3979;SDS011;2004;52.452;13.120;2022-10-16T03:26:22;3.00;;;1.60;;
3979;SDS011;2004;52.452;13.120;2022-10-16T03:34:13;1.60;;;1.50;;
3979;SDS011;2004;52.452;13.120;2022-10-16T03:42:03;1.37;;;1.37;;
3979;SDS011;2004;52.452;13.120;2022-10-16T03:49:54;2.60;;;1.63;;
3979;SDS011;2004;52.452;13.120;2022-10-16T03:57:44;3.73;;;1.50;;
3979;SDS011;2004;52.452;13.120;2022-10-16T04:05:35;1.37;;;1.30;;
3979;SDS011;2004;52.452;13.120;2022-10-16T04:13:25;3.03;;;1.70;;
3979;SDS011;2004;52.452;13.120;2022-10-16T04:21:16;1.70;;;1.60;;
3979;SDS011;2004;52.452;13.120;2022-10-16T04:29:06;2.00;;;1.90;;
3979;SDS011;2004;52.452;13.120;2022-10-16T04:36:57;2.43;;;2.00;;
3979;SDS011;2004;52.452;13.120;2022-10-16T04:44:48;2.10;;;2.00;;
3979;SDS011;2004;52.452;13.120;2022-10-16T04:52:38;2.87;;;2.53;;
3979;SDS011;2004;52.452;13.120;2022-10-16T05:00:29;1.57;;;1.53;;
3979;SDS011;2004;52.452;13.120;2022-10-16T05:08:19;1.83;;;1.73;;
3979;SDS011;2004;52.452;13.120;2022-10-16T05:16:10;1.77;;;1.67;;
3979;SDS011;2004;52.452;13.120;2022-10-16T05:24:01;2.13;;;1.93;;
3979;SDS011;2004;52.452;13.120;2022-10-16T05:31:52;4.03;;;2.10;;
3979;SDS011;2004;52.452;13.120;2022-10-16T05:39:43;5.30;;;4.50;;
3979;SDS011;2004;52.452;13.120;2022-10-16T05:47:33;2.77;;;2.30;;
3979;SDS011;2004;52.452;13.120;2022-10-16T05:55:24;2.03;;;1.80;;
3979;SDS011;2004;52.452;13.120;2022-10-16T06:03:14;1.63;;;1.53;;
3979;SDS011;2004;52.452;13.120;2022-10-16T06:11:06;2.27;;;1.57;;
3979;SDS011;2004;52.452;13.120;2022-10-16T06:18:58;2.27;;;1.90;;
3979;SDS011;2004;52.452;13.120;2022-10-16T06:26:50;7.70;;;4.40;;
3979;SDS011;2004;52.452;13.120;2022-10-16T06:34:40;2.87;;;2.70;;
3979;SDS011;2004;52.452;13.120;2022-10-16T06:42:31;10.23;;;3.10;;
3979;SDS011;2004;52.452;13.120;2022-10-16T06:50:21;10.40;;;3.30;;
3979;SDS011;2004;52.452;13.120;2022-10-16T06:58:12;3.60;;;2.33;;
3979;SDS011;2004;52.452;13.120;2022-10-16T07:06:03;1.50;;;1.40;;
3979;SDS011;2004;52.452;13.120;2022-10-16T07:13:54;3.30;;;2.30;;
3979;SDS011;2004;52.452;13.120;2022-10-16T07:21:45;3.07;;;1.70;;
3979;SDS011;2004;52.452;13.120;2022-10-16T07:29:35;2.33;;;1.43;;
3979;SDS011;2004;52.452;13.120;2022-10-16T07:37:26;4.07;;;2.70;;
3979;SDS011;2004;52.452;13.120;2022-10-16T07:45:16;2.03;;;1.77;;
3979;SDS011;2004;52.452;13.120;2022-10-16T07:53:07;2.40;;;1.80;;
3979;SDS011;2004;52.452;13.120;2022-10-16T08:00:58;1.83;;;1.40;;
3979;SDS011;2004;52.452;13.120;2022-10-16T08:08:49;1.50;;;1.40;;
3979;SDS011;2004;52.452;13.120;2022-10-16T08:16:39;1.40;;;1.30;;
3979;SDS011;2004;52.452;13.120;2022-10-16T08:24:30;3.77;;;3.17;;
3979;SDS011;2004;52.452;13.120;2022-10-16T08:32:21;1.37;;;1.30;;
3979;SDS011;2004;52.452;13.120;2022-10-16T08:56:28;1.53;;;0.97;;
3979;SDS011;2004;52.452;13.120;2022-10-16T09:04:42;0.90;;;0.90;;
3979;SDS011;2004;52.452;13.120;2022-10-16T09:12:50;0.90;;;0.90;;
3979;SDS011;2004;52.452;13.120;2022-10-16T09:28:49;0.90;;;0.90;;
3979;SDS011;2004;52.452;13.120;2022-10-16T09:36:43;1.23;;;1.23;;
3979;SDS011;2004;52.452;13.120;2022-10-16T09:44:40;1.30;;;1.20;;
3979;SDS011;2004;52.452;13.120;2022-10-16T09:52:31;2.13;;;1.50;;
3979;SDS011;2004;52.452;13.120;2022-10-16T10:00:23;1.43;;;0.80;;
3979;SDS011;2004;52.452;13.120;2022-10-16T10:08:14;0.90;;;0.90;;
3979;SDS011;2004;52.452;13.120;2022-10-16T10:16:23;1.53;;;1.10;;
3979;SDS011;2004;52.452;13.120;2022-10-16T10:24:14;3.27;;;0.97;;
3979;SDS011;2004;52.452;13.120;2022-10-16T10:32:17;0.90;;;0.90;;
3979;SDS011;2004;52.452;13.120;2022-10-16T10:40:48;3.90;;;0.93;;
3979;SDS011;2004;52.452;13.120;2022-10-16T11:05:00;1.00;;;1.00;;
3979;SDS011;2004;52.452;13.120;2022-10-16T11:22:01;1.40;;;0.80;;
3979;SDS011;2004;52.452;13.120;2022-10-16T11:29:59;0.77;;;0.77;;
3979;SDS011;2004;52.452;13.120;2022-10-16T11:37:54;3.70;;;0.80;;
3979;SDS011;2004;52.452;13.120;2022-10-16T11:45:51;1.20;;;0.83;;
3979;SDS011;2004;52.452;13.120;2022-10-16T11:53:46;1.13;;;0.70;;
3979;SDS011;2004;52.452;13.120;2022-10-16T12:01:54;1.90;;;0.87;;
3979;SDS011;2004;52.452;13.120;2022-10-16T12:09:57;1.53;;;1.27;;
3979;SDS011;2004;52.452;13.120;2022-10-16T12:17:50;1.33;;;0.60;;
3979;SDS011;2004;52.452;13.120;2022-10-16T12:25:41;0.80;;;0.80;;
3979;SDS011;2004;52.452;13.120;2022-10-16T12:33:36;0.80;;;0.77;;
3979;SDS011;2004;52.452;13.120;2022-10-16T12:41:34;0.90;;;0.90;;
3979;SDS011;2004;52.452;13.120;2022-10-16T12:57:26;1.00;;;0.70;;
3979;SDS011;2004;52.452;13.120;2022-10-16T13:05:46;4.33;;;0.70;;
3979;SDS011;2004;52.452;13.120;2022-10-16T13:14:03;0.63;;;0.63;;
3979;SDS011;2004;52.452;13.120;2022-10-16T13:22:27;1.00;;;0.60;;
3979;SDS011;2004;52.452;13.120;2022-10-16T13:30:25;3.77;;;0.70;;
3979;SDS011;2004;52.452;13.120;2022-10-16T13:38:19;0.80;;;0.80;;
3979;SDS011;2004;52.452;13.120;2022-10-16T13:46:15;1.53;;;0.63;;
3979;SDS011;2004;52.452;13.120;2022-10-16T13:54:10;1.47;;;0.90;;
3979;SDS011;2004;52.452;13.120;2022-10-16T14:02:05;1.20;;;0.70;;
3979;SDS011;2004;52.452;13.120;2022-10-16T14:10:20;0.80;;;0.80;;
3979;SDS011;2004;52.452;13.120;2022-10-16T14:18:22;2.83;;;0.97;;
3979;SDS011;2004;52.452;13.120;2022-10-16T14:26:16;3.40;;;0.80;;
3979;SDS011;2004;52.452;13.120;2022-10-16T14:34:31;4.43;;;1.13;;
3979;SDS011;2004;52.452;13.120;2022-10-16T14:42:24;1.87;;;0.80;;
3979;SDS011;2004;52.452;13.120;2022-10-16T14:50:15;2.00;;;0.70;;
3979;SDS011;2004;52.452;13.120;2022-10-16T14:58:07;3.60;;;0.83;;
3979;SDS011;2004;52.452;13.120;2022-10-16T15:06:11;3.47;;;0.90;;
3979;SDS011;2004;52.452;13.120;2022-10-16T15:14:02;2.13;;;0.90;;
3979;SDS011;2004;52.452;13.120;2022-10-16T15:21:53;3.13;;;0.80;;
3979;SDS011;2004;52.452;13.120;2022-10-16T15:29:44;0.80;;;0.60;;
3979;SDS011;2004;52.452;13.120;2022-10-16T15:37:34;1.70;;;0.80;;
3979;SDS011;2004;52.452;13.120;2022-10-16T15:45:25;7.83;;;2.33;;
3979;SDS011;2004;52.452;13.120;2022-10-16T15:53:16;1.33;;;0.90;;
3979;SDS011;2004;52.452;13.120;2022-10-16T16:01:06;1.40;;;1.00;;
3979;SDS011;2004;52.452;13.120;2022-10-16T16:08:59;2.70;;;1.13;;
3979;SDS011;2004;52.452;13.120;2022-10-16T16:16:49;1.87;;;1.60;;
3979;SDS011;2004;52.452;13.120;2022-10-16T16:24:40;2.87;;;2.67;;
3979;SDS011;2004;52.452;13.120;2022-10-16T16:32:31;2.87;;;2.67;;
3979;SDS011;2004;52.452;13.120;2022-10-16T16:40:21;7.20;;;5.60;;
3979;SDS011;2004;52.452;13.120;2022-10-16T16:48:12;10.90;;;8.20;;
3979;SDS011;2004;52.452;13.120;2022-10-16T16:56:03;10.30;;;5.80;;
3979;SDS011;2004;52.452;13.120;2022-10-16T17:03:55;6.00;;;4.93;;
3979;SDS011;2004;52.452;13.120;2022-10-16T17:11:47;4.17;;;3.43;;
3979;SDS011;2004;52.452;13.120;2022-10-16T17:19:38;6.60;;;3.67;;
3979;SDS011;2004;52.452;13.120;2022-10-16T17:27:28;7.90;;;3.77;;
3979;SDS011;2004;52.452;13.120;2022-10-16T17:35:19;9.57;;;6.80;;
3979;SDS011;2004;52.452;13.120;2022-10-16T17:43:10;11.00;;;7.43;;
3979;SDS011;2004;52.452;13.120;2022-10-16T17:51:02;18.37;;;10.20;;
3979;SDS011;2004;52.452;13.120;2022-10-16T17:58:55;19.83;;;10.57;;
3979;SDS011;2004;52.452;13.120;2022-10-16T18:06:49;19.47;;;10.93;;
3979;SDS011;2004;52.452;13.120;2022-10-16T18:14:39;27.53;;;18.07;;
3979;SDS011;2004;52.452;13.120;2022-10-16T18:22:31;16.80;;;10.00;;
3979;SDS011;2004;52.452;13.120;2022-10-16T18:30:25;13.50;;;9.33;;
3979;SDS011;2004;52.452;13.120;2022-10-16T18:38:15;16.27;;;10.83;;
3979;SDS011;2004;52.452;13.120;2022-10-16T18:46:08;16.13;;;9.93;;
3979;SDS011;2004;52.452;13.120;2022-10-16T18:54:02;8.97;;;5.60;;
3979;SDS011;2004;52.452;13.120;2022-10-16T19:01:57;8.37;;;4.17;;
3979;SDS011;2004;52.452;13.120;2022-10-16T19:09:49;7.23;;;2.63;;
3979;SDS011;2004;52.452;13.120;2022-10-16T19:17:39;6.30;;;3.73;;
3979;SDS011;2004;52.452;13.120;2022-10-16T19:25:30;10.23;;;5.57;;
3979;SDS011;2004;52.452;13.120;2022-10-16T19:33:25;12.90;;;7.93;;
3979;SDS011;2004;52.452;13.120;2022-10-16T19:41:16;11.13;;;6.23;;
3979;SDS011;2004;52.452;13.120;2022-10-16T19:49:08;9.30;;;6.80;;
3979;SDS011;2004;52.452;13.120;2022-10-16T19:57:00;10.47;;;6.77;;
3979;SDS011;2004;52.452;13.120;2022-10-16T20:04:51;9.67;;;6.70;;
3979;SDS011;2004;52.452;13.120;2022-10-16T20:12:41;8.30;;;6.10;;
3979;SDS011;2004;52.452;13.120;2022-10-16T20:20:35;7.40;;;6.30;;
3979;SDS011;2004;52.452;13.120;2022-10-16T20:28:30;7.70;;;5.50;;
3979;SDS011;2004;52.452;13.120;2022-10-16T20:36:21;14.83;;;7.57;;
3979;SDS011;2004;52.452;13.120;2022-10-16T20:44:14;8.97;;;5.20;;
3979;SDS011;2004;52.452;13.120;2022-10-16T20:52:04;7.70;;;4.93;;
3979;SDS011;2004;52.452;13.120;2022-10-16T20:59:55;9.33;;;5.70;;
3979;SDS011;2004;52.452;13.120;2022-10-16T21:07:45;8.10;;;5.10;;
3979;SDS011;2004;52.452;13.120;2022-10-16T21:15:36;6.17;;;4.10;;
3979;SDS011;2004;52.452;13.120;2022-10-16T21:23:26;5.10;;;3.93;;
3979;SDS011;2004;52.452;13.120;2022-10-16T21:31:17;10.03;;;4.13;;
3979;SDS011;2004;52.452;13.120;2022-10-16T21:39:10;15.07;;;4.50;;
3979;SDS011;2004;52.452;13.120;2022-10-16T21:47:03;6.23;;;4.60;;
3979;SDS011;2004;52.452;13.120;2022-10-16T21:54:53;7.17;;;4.80;;
3979;SDS011;2004;52.452;13.120;2022-10-16T22:02:44;9.93;;;6.33;;
3979;SDS011;2004;52.452;13.120;2022-10-16T22:10:34;7.33;;;6.20;;
3979;SDS011;2004;52.452;13.120;2022-10-16T22:18:25;8.50;;;6.00;;
3979;SDS011;2004;52.452;13.120;2022-10-16T22:26:16;8.13;;;5.30;;
3979;SDS011;2004;52.452;13.120;2022-10-16T22:34:09;7.23;;;5.83;;
3979;SDS011;2004;52.452;13.120;2022-10-16T22:42:01;7.73;;;5.50;;
3979;SDS011;2004;52.452;13.120;2022-10-16T22:49:52;7.83;;;5.77;;
3979;SDS011;2004;52.452;13.120;2022-10-16T22:57:43;5.40;;;4.87;;
3979;SDS011;2004;52.452;13.120;2022-10-16T23:05:36;5.00;;;3.60;;
3979;SDS011;2004;52.452;13.120;2022-10-16T23:13:31;5.50;;;4.13;;
3979;SDS011;2004;52.452;13.120;2022-10-16T23:21:22;8.23;;;3.97;;
3979;SDS011;2004;52.452;13.120;2022-10-16T23:29:14;4.50;;;4.10;;
3979;SDS011;2004;52.452;13.120;2022-10-16T23:37:04;4.53;;;3.83;;
3979;SDS011;2004;52.452;13.120;2022-10-16T23:44:55;6.87;;;4.10;;
3979;SDS011;2004;52.452;13.120;2022-10-16T23:52:45;4.13;;;3.60;;
